sensor_id;sensor_type;location;lat;lon;timestamp;P1;durP1;ratioP1;P2;durP2;ratioP2
40116;SDS011;25829;50.228;18.936;2023-07-16T00:00:32;8.60;;;6.80;;
40116;SDS011;25829;50.228;18.936;2023-07-16T00:07:51;6.72;;;6.13;;
40116;SDS011;25829;50.228;18.936;2023-07-16T00:10:51;6.80;;;6.10;;
40116;SDS011;25829;50.228;18.936;2023-07-16T00:13:52;7.25;;;6.15;;
40116;SDS011;25829;50.228;18.936;2023-07-16T00:16:54;7.03;;;6.32;;
40116;SDS011;25829;50.228;18.936;2023-07-16T00:20:04;8.13;;;6.55;;
40116;SDS011;25829;50.228;18.936;2023-07-16T00:23:09;8.68;;;5.97;;
40116;SDS011;25829;50.228;18.936;2023-07-16T00:26:10;6.85;;;6.20;;
40116;SDS011;25829;50.228;18.936;2023-07-16T00:29:11;10.32;;;6.32;;
40116;SDS011;25829;50.228;18.936;2023-07-16T00:43:19;7.65;;;6.93;;
40116;SDS011;25829;50.228;18.936;2023-07-16T00:46:20;8.05;;;6.78;;
40116;SDS011;25829;50.228;18.936;2023-07-16T00:49:22;7.10;;;6.40;;
40116;SDS011;25829;50.228;18.936;2023-07-16T00:52:27;8.63;;;6.60;;
40116;SDS011;25829;50.228;18.936;2023-07-16T00:55:29;7.88;;;6.60;;
40116;SDS011;25829;50.228;18.936;2023-07-16T00:58:30;7.85;;;6.93;;
40116;SDS011;25829;50.228;18.936;2023-07-16T01:01:31;9.25;;;6.55;;
40116;SDS011;25829;50.228;18.936;2023-07-16T01:04:31;8.80;;;6.72;;
40116;SDS011;25829;50.228;18.936;2023-07-16T01:07:36;7.53;;;6.68;;
40116;SDS011;25829;50.228;18.936;2023-07-16T01:10:43;7.93;;;6.45;;
40116;SDS011;25829;50.228;18.936;2023-07-16T01:13:44;10.65;;;6.07;;
40116;SDS011;25829;50.228;18.936;2023-07-16T01:16:45;7.35;;;6.63;;
40116;SDS011;25829;50.228;18.936;2023-07-16T01:19:48;7.20;;;6.50;;
40116;SDS011;25829;50.228;18.936;2023-07-16T01:26:19;8.68;;;6.57;;
40116;SDS011;25829;50.228;18.936;2023-07-16T01:29:58;6.95;;;6.35;;
40116;SDS011;25829;50.228;18.936;2023-07-16T01:33:04;7.00;;;5.90;;
40116;SDS011;25829;50.228;18.936;2023-07-16T01:36:05;10.65;;;6.70;;
40116;SDS011;25829;50.228;18.936;2023-07-16T01:39:08;6.85;;;6.15;;
40116;SDS011;25829;50.228;18.936;2023-07-16T01:42:09;10.00;;;6.68;;
40116;SDS011;25829;50.228;18.936;2023-07-16T01:45:12;9.27;;;6.95;;
40116;SDS011;25829;50.228;18.936;2023-07-16T01:51:28;7.20;;;6.43;;
40116;SDS011;25829;50.228;18.936;2023-07-16T01:54:29;7.25;;;5.90;;
40116;SDS011;25829;50.228;18.936;2023-07-16T01:57:31;6.43;;;5.80;;
40116;SDS011;25829;50.228;18.936;2023-07-16T02:00:32;7.80;;;6.55;;
40116;SDS011;25829;50.228;18.936;2023-07-16T02:03:36;8.38;;;6.60;;
40116;SDS011;25829;50.228;18.936;2023-07-16T02:06:39;7.10;;;6.40;;
40116;SDS011;25829;50.228;18.936;2023-07-16T02:09:43;6.68;;;6.07;;
40116;SDS011;25829;50.228;18.936;2023-07-16T02:12:43;7.32;;;5.90;;
40116;SDS011;25829;50.228;18.936;2023-07-16T02:15:44;6.28;;;5.63;;
40116;SDS011;25829;50.228;18.936;2023-07-16T02:18:45;7.50;;;6.63;;
40116;SDS011;25829;50.228;18.936;2023-07-16T02:21:46;6.47;;;5.78;;
40116;SDS011;25829;50.228;18.936;2023-07-16T02:24:47;9.57;;;6.20;;
40116;SDS011;25829;50.228;18.936;2023-07-16T02:27:47;6.70;;;6.10;;
40116;SDS011;25829;50.228;18.936;2023-07-16T02:30:49;8.25;;;7.30;;
40116;SDS011;25829;50.228;18.936;2023-07-16T02:33:53;8.18;;;5.93;;
40116;SDS011;25829;50.228;18.936;2023-07-16T02:36:54;6.72;;;6.03;;
40116;SDS011;25829;50.228;18.936;2023-07-16T02:39:54;6.70;;;5.82;;
40116;SDS011;25829;50.228;18.936;2023-07-16T02:42:55;6.72;;;5.95;;
40116;SDS011;25829;50.228;18.936;2023-07-16T02:46:03;10.35;;;6.13;;
40116;SDS011;25829;50.228;18.936;2023-07-16T02:52:32;9.40;;;6.00;;
40116;SDS011;25829;50.228;18.936;2023-07-16T02:55:44;8.32;;;6.60;;
40116;SDS011;25829;50.228;18.936;2023-07-16T02:58:46;7.43;;;6.72;;
40116;SDS011;25829;50.228;18.936;2023-07-16T03:01:49;7.05;;;6.35;;
40116;SDS011;25829;50.228;18.936;2023-07-16T03:04:50;8.70;;;6.65;;
40116;SDS011;25829;50.228;18.936;2023-07-16T03:07:51;9.25;;;6.60;;
40116;SDS011;25829;50.228;18.936;2023-07-16T03:10:51;7.47;;;6.75;;
40116;SDS011;25829;50.228;18.936;2023-07-16T03:13:53;9.13;;;6.05;;
40116;SDS011;25829;50.228;18.936;2023-07-16T03:16:55;6.80;;;5.88;;
40116;SDS011;25829;50.228;18.936;2023-07-16T03:20:07;6.78;;;6.18;;
40116;SDS011;25829;50.228;18.936;2023-07-16T03:23:12;7.13;;;6.43;;
40116;SDS011;25829;50.228;18.936;2023-07-16T03:26:16;6.55;;;5.95;;
40116;SDS011;25829;50.228;18.936;2023-07-16T03:29:17;8.98;;;6.53;;
40116;SDS011;25829;50.228;18.936;2023-07-16T03:32:21;6.68;;;6.05;;
40116;SDS011;25829;50.228;18.936;2023-07-16T03:35:22;7.28;;;6.55;;
40116;SDS011;25829;50.228;18.936;2023-07-16T03:38:24;6.85;;;6.13;;
40116;SDS011;25829;50.228;18.936;2023-07-16T03:41:26;7.25;;;6.13;;
40116;SDS011;25829;50.228;18.936;2023-07-16T03:44:27;6.70;;;6.00;;
40116;SDS011;25829;50.228;18.936;2023-07-16T03:47:29;6.43;;;5.55;;
40116;SDS011;25829;50.228;18.936;2023-07-16T03:50:33;8.70;;;6.82;;
40116;SDS011;25829;50.228;18.936;2023-07-16T03:53:35;6.60;;;5.90;;
40116;SDS011;25829;50.228;18.936;2023-07-16T03:56:36;7.38;;;6.10;;
40116;SDS011;25829;50.228;18.936;2023-07-16T03:59:37;7.78;;;6.35;;
40116;SDS011;25829;50.228;18.936;2023-07-16T04:02:38;8.70;;;5.88;;
40116;SDS011;25829;50.228;18.936;2023-07-16T04:05:39;7.65;;;6.38;;
40116;SDS011;25829;50.228;18.936;2023-07-16T04:08:40;8.13;;;5.53;;
40116;SDS011;25829;50.228;18.936;2023-07-16T04:11:41;8.18;;;6.57;;
40116;SDS011;25829;50.228;18.936;2023-07-16T04:14:42;6.70;;;6.00;;
40116;SDS011;25829;50.228;18.936;2023-07-16T04:17:42;6.70;;;6.00;;
40116;SDS011;25829;50.228;18.936;2023-07-16T04:20:43;8.00;;;6.43;;
40116;SDS011;25829;50.228;18.936;2023-07-16T04:23:47;8.75;;;6.40;;
40116;SDS011;25829;50.228;18.936;2023-07-16T04:26:48;7.70;;;6.40;;
40116;SDS011;25829;50.228;18.936;2023-07-16T04:29:49;6.35;;;5.70;;
40116;SDS011;25829;50.228;18.936;2023-07-16T04:32:50;7.00;;;6.30;;
40116;SDS011;25829;50.228;18.936;2023-07-16T04:35:51;7.90;;;6.65;;
40116;SDS011;25829;50.228;18.936;2023-07-16T04:38:51;6.18;;;5.57;;
40116;SDS011;25829;50.228;18.936;2023-07-16T04:41:52;8.10;;;5.72;;
40116;SDS011;25829;50.228;18.936;2023-07-16T04:44:53;6.40;;;5.80;;
40116;SDS011;25829;50.228;18.936;2023-07-16T04:47:54;7.20;;;6.50;;
40116;SDS011;25829;50.228;18.936;2023-07-16T04:54:58;6.72;;;5.30;;
40116;SDS011;25829;50.228;18.936;2023-07-16T04:57:58;6.68;;;5.60;;
40116;SDS011;25829;50.228;18.936;2023-07-16T05:00:59;6.55;;;5.82;;
40116;SDS011;25829;50.228;18.936;2023-07-16T05:04:00;5.88;;;5.28;;
40116;SDS011;25829;50.228;18.936;2023-07-16T05:07:01;6.47;;;5.57;;
40116;SDS011;25829;50.228;18.936;2023-07-16T05:10:04;7.00;;;5.18;;
40116;SDS011;25829;50.228;18.936;2023-07-16T05:13:05;6.30;;;5.70;;
40116;SDS011;25829;50.228;18.936;2023-07-16T05:16:05;7.90;;;5.85;;
40116;SDS011;25829;50.228;18.936;2023-07-16T05:19:06;7.35;;;4.65;;
40116;SDS011;25829;50.228;18.936;2023-07-16T05:22:07;7.15;;;5.18;;
40116;SDS011;25829;50.228;18.936;2023-07-16T05:25:08;7.65;;;5.47;;
40116;SDS011;25829;50.228;18.936;2023-07-16T05:28:09;5.07;;;4.55;;
40116;SDS011;25829;50.228;18.936;2023-07-16T05:31:10;5.57;;;5.05;;
40116;SDS011;25829;50.228;18.936;2023-07-16T05:34:12;5.57;;;5.07;;
40116;SDS011;25829;50.228;18.936;2023-07-16T05:37:14;5.47;;;4.97;;
40116;SDS011;25829;50.228;18.936;2023-07-16T05:40:14;7.55;;;5.55;;
40116;SDS011;25829;50.228;18.936;2023-07-16T05:43:15;6.43;;;5.65;;
40116;SDS011;25829;50.228;18.936;2023-07-16T05:46:16;6.20;;;5.60;;
40116;SDS011;25829;50.228;18.936;2023-07-16T05:49:23;5.60;;;5.10;;
40116;SDS011;25829;50.228;18.936;2023-07-16T05:52:28;7.68;;;5.82;;
40116;SDS011;25829;50.228;18.936;2023-07-16T05:55:32;10.27;;;5.50;;
40116;SDS011;25829;50.228;18.936;2023-07-16T05:58:33;6.03;;;5.28;;
40116;SDS011;25829;50.228;18.936;2023-07-16T06:01:36;8.27;;;5.75;;
40116;SDS011;25829;50.228;18.936;2023-07-16T06:04:37;10.02;;;5.80;;
40116;SDS011;25829;50.228;18.936;2023-07-16T06:07:38;5.28;;;4.78;;
40116;SDS011;25829;50.228;18.936;2023-07-16T06:10:39;9.85;;;5.70;;
40116;SDS011;25829;50.228;18.936;2023-07-16T06:13:46;6.82;;;5.95;;
40116;SDS011;25829;50.228;18.936;2023-07-16T06:16:46;6.72;;;5.97;;
40116;SDS011;25829;50.228;18.936;2023-07-16T06:20:03;6.70;;;6.10;;
40116;SDS011;25829;50.228;18.936;2023-07-16T06:26:59;7.55;;;6.30;;
40116;SDS011;25829;50.228;18.936;2023-07-16T06:29:59;8.90;;;6.32;;
40116;SDS011;25829;50.228;18.936;2023-07-16T06:33:00;9.77;;;7.38;;
40116;SDS011;25829;50.228;18.936;2023-07-16T06:36:01;7.68;;;6.75;;
40116;SDS011;25829;50.228;18.936;2023-07-16T06:39:25;9.10;;;7.50;;
40116;SDS011;25829;50.228;18.936;2023-07-16T06:42:26;9.85;;;7.07;;
40116;SDS011;25829;50.228;18.936;2023-07-16T06:49:06;10.75;;;7.40;;
40116;SDS011;25829;50.228;18.936;2023-07-16T06:52:18;10.80;;;6.95;;
40116;SDS011;25829;50.228;18.936;2023-07-16T06:55:23;9.45;;;7.03;;
40116;SDS011;25829;50.228;18.936;2023-07-16T06:58:32;8.20;;;6.90;;
40116;SDS011;25829;50.228;18.936;2023-07-16T07:01:36;10.90;;;7.55;;
40116;SDS011;25829;50.228;18.936;2023-07-16T07:04:41;10.93;;;7.35;;
40116;SDS011;25829;50.228;18.936;2023-07-16T07:07:53;9.38;;;7.38;;
40116;SDS011;25829;50.228;18.936;2023-07-16T07:11:06;9.65;;;7.68;;
40116;SDS011;25829;50.228;18.936;2023-07-16T07:14:07;13.57;;;8.40;;
40116;SDS011;25829;50.228;18.936;2023-07-16T07:17:10;9.40;;;8.50;;
40116;SDS011;25829;50.228;18.936;2023-07-16T07:23:43;11.77;;;8.63;;
40116;SDS011;25829;50.228;18.936;2023-07-16T07:26:44;10.77;;;8.32;;
40116;SDS011;25829;50.228;18.936;2023-07-16T07:36:45;17.02;;;8.63;;
40116;SDS011;25829;50.228;18.936;2023-07-16T07:39:51;7.90;;;7.20;;
40116;SDS011;25829;50.228;18.936;2023-07-16T07:42:59;8.90;;;8.00;;
40116;SDS011;25829;50.228;18.936;2023-07-16T07:46:00;8.00;;;7.20;;
40116;SDS011;25829;50.228;18.936;2023-07-16T07:49:01;10.98;;;6.90;;
40116;SDS011;25829;50.228;18.936;2023-07-16T07:52:01;8.50;;;6.70;;
40116;SDS011;25829;50.228;18.936;2023-07-16T07:55:17;8.10;;;6.65;;
40116;SDS011;25829;50.228;18.936;2023-07-16T07:58:18;7.50;;;6.80;;
40116;SDS011;25829;50.228;18.936;2023-07-16T08:01:19;7.70;;;6.90;;
40116;SDS011;25829;50.228;18.936;2023-07-16T08:04:28;7.60;;;6.90;;
40116;SDS011;25829;50.228;18.936;2023-07-16T08:07:31;8.32;;;6.40;;
40116;SDS011;25829;50.228;18.936;2023-07-16T08:10:41;7.80;;;7.10;;
40116;SDS011;25829;50.228;18.936;2023-07-16T08:13:43;7.57;;;6.85;;
40116;SDS011;25829;50.228;18.936;2023-07-16T08:16:44;10.32;;;6.68;;
40116;SDS011;25829;50.228;18.936;2023-07-16T08:19:57;8.82;;;7.13;;
40116;SDS011;25829;50.228;18.936;2023-07-16T08:22:57;8.57;;;7.43;;
40116;SDS011;25829;50.228;18.936;2023-07-16T08:25:58;7.82;;;7.03;;
40116;SDS011;25829;50.228;18.936;2023-07-16T08:28:59;8.52;;;7.82;;
40116;SDS011;25829;50.228;18.936;2023-07-16T08:32:04;7.78;;;6.80;;
40116;SDS011;25829;50.228;18.936;2023-07-16T08:35:08;8.75;;;7.88;;
40116;SDS011;25829;50.228;18.936;2023-07-16T08:38:19;8.27;;;7.57;;
40116;SDS011;25829;50.228;18.936;2023-07-16T08:41:26;8.45;;;7.63;;
40116;SDS011;25829;50.228;18.936;2023-07-16T08:44:28;8.90;;;8.00;;
40116;SDS011;25829;50.228;18.936;2023-07-16T08:47:34;9.18;;;8.38;;
40116;SDS011;25829;50.228;18.936;2023-07-16T08:50:42;8.65;;;7.85;;
40116;SDS011;25829;50.228;18.936;2023-07-16T08:53:45;9.77;;;8.80;;
40116;SDS011;25829;50.228;18.936;2023-07-16T08:56:47;9.40;;;8.63;;
40116;SDS011;25829;50.228;18.936;2023-07-16T08:59:49;9.23;;;8.32;;
40116;SDS011;25829;50.228;18.936;2023-07-16T09:02:53;8.10;;;7.30;;
40116;SDS011;25829;50.228;18.936;2023-07-16T09:09:28;8.85;;;7.88;;
40116;SDS011;25829;50.228;18.936;2023-07-16T09:12:30;8.13;;;7.43;;
40116;SDS011;25829;50.228;18.936;2023-07-16T09:18:32;8.57;;;7.63;;
40116;SDS011;25829;50.228;18.936;2023-07-16T09:21:33;8.38;;;7.68;;
40116;SDS011;25829;50.228;18.936;2023-07-16T09:25:49;8.50;;;7.80;;
40116;SDS011;25829;50.228;18.936;2023-07-16T09:30:23;7.63;;;6.93;;
40116;SDS011;25829;50.228;18.936;2023-07-16T09:35:20;8.93;;;7.10;;
40116;SDS011;25829;50.228;18.936;2023-07-16T09:54:11;9.07;;;5.70;;
40116;SDS011;25829;50.228;18.936;2023-07-16T09:57:14;6.20;;;5.60;;
40116;SDS011;25829;50.228;18.936;2023-07-16T10:00:22;7.30;;;5.75;;
40116;SDS011;25829;50.228;18.936;2023-07-16T10:03:24;7.10;;;5.60;;
40116;SDS011;25829;50.228;18.936;2023-07-16T10:06:25;6.45;;;5.95;;
40116;SDS011;25829;50.228;18.936;2023-07-16T10:12:40;6.30;;;5.55;;
40116;SDS011;25829;50.228;18.936;2023-07-16T10:15:57;6.05;;;5.05;;
40116;SDS011;25829;50.228;18.936;2023-07-16T10:19:05;6.10;;;5.57;;
40116;SDS011;25829;50.228;18.936;2023-07-16T10:22:05;5.68;;;5.20;;
40116;SDS011;25829;50.228;18.936;2023-07-16T10:25:22;11.38;;;5.30;;
40116;SDS011;25829;50.228;18.936;2023-07-16T10:28:25;7.13;;;5.30;;
40116;SDS011;25829;50.228;18.936;2023-07-16T10:31:26;5.65;;;5.15;;
40116;SDS011;25829;50.228;18.936;2023-07-16T10:34:30;7.28;;;5.22;;
40116;SDS011;25829;50.228;18.936;2023-07-16T10:37:33;6.10;;;5.53;;
40116;SDS011;25829;50.228;18.936;2023-07-16T10:40:39;6.13;;;5.55;;
40116;SDS011;25829;50.228;18.936;2023-07-16T10:43:41;6.55;;;5.82;;
40116;SDS011;25829;50.228;18.936;2023-07-16T10:46:42;7.35;;;5.45;;
40116;SDS011;25829;50.228;18.936;2023-07-16T10:49:44;6.03;;;5.53;;
40116;SDS011;25829;50.228;18.936;2023-07-16T10:52:44;7.10;;;5.97;;
40116;SDS011;25829;50.228;18.936;2023-07-16T10:55:45;5.82;;;5.05;;
40116;SDS011;25829;50.228;18.936;2023-07-16T10:58:46;5.75;;;5.25;;
40116;SDS011;25829;50.228;18.936;2023-07-16T11:01:47;5.88;;;4.97;;
40116;SDS011;25829;50.228;18.936;2023-07-16T11:04:48;5.93;;;5.35;;
40116;SDS011;25829;50.228;18.936;2023-07-16T11:07:50;6.85;;;5.55;;
40116;SDS011;25829;50.228;18.936;2023-07-16T11:10:54;6.57;;;5.53;;
40116;SDS011;25829;50.228;18.936;2023-07-16T11:13:56;6.03;;;5.30;;
40116;SDS011;25829;50.228;18.936;2023-07-16T11:17:03;6.88;;;5.30;;
40116;SDS011;25829;50.228;18.936;2023-07-16T11:23:10;6.07;;;5.45;;
40116;SDS011;25829;50.228;18.936;2023-07-16T11:26:22;6.10;;;5.50;;
40116;SDS011;25829;50.228;18.936;2023-07-16T11:29:24;5.95;;;5.38;;
40116;SDS011;25829;50.228;18.936;2023-07-16T11:32:46;6.35;;;5.22;;
40116;SDS011;25829;50.228;18.936;2023-07-16T11:35:48;5.85;;;5.35;;
40116;SDS011;25829;50.228;18.936;2023-07-16T11:38:49;6.78;;;5.55;;
40116;SDS011;25829;50.228;18.936;2023-07-16T11:42:03;5.80;;;5.30;;
40116;SDS011;25829;50.228;18.936;2023-07-16T11:45:30;6.88;;;5.63;;
40116;SDS011;25829;50.228;18.936;2023-07-16T11:48:31;7.03;;;5.63;;
40116;SDS011;25829;50.228;18.936;2023-07-16T11:51:32;5.93;;;5.30;;
40116;SDS011;25829;50.228;18.936;2023-07-16T11:54:32;5.43;;;4.93;;
40116;SDS011;25829;50.228;18.936;2023-07-16T11:57:34;5.32;;;4.82;;
40116;SDS011;25829;50.228;18.936;2023-07-16T12:00:35;6.30;;;5.53;;
40116;SDS011;25829;50.228;18.936;2023-07-16T12:03:36;5.20;;;4.63;;
40116;SDS011;25829;50.228;18.936;2023-07-16T12:06:37;5.82;;;5.22;;
40116;SDS011;25829;50.228;18.936;2023-07-16T12:09:38;5.72;;;5.18;;
40116;SDS011;25829;50.228;18.936;2023-07-16T12:12:38;5.35;;;4.85;;
40116;SDS011;25829;50.228;18.936;2023-07-16T12:23:17;5.95;;;4.85;;
40116;SDS011;25829;50.228;18.936;2023-07-16T12:30:55;10.05;;;6.38;;
40116;SDS011;25829;50.228;18.936;2023-07-16T12:33:56;7.07;;;5.30;;
40116;SDS011;25829;50.228;18.936;2023-07-16T12:36:58;6.22;;;5.70;;
40116;SDS011;25829;50.228;18.936;2023-07-16T12:43:33;5.53;;;5.03;;
40116;SDS011;25829;50.228;18.936;2023-07-16T12:46:52;6.00;;;5.40;;
40116;SDS011;25829;50.228;18.936;2023-07-16T12:53:19;5.90;;;5.32;;
40116;SDS011;25829;50.228;18.936;2023-07-16T12:56:20;5.88;;;5.38;;
40116;SDS011;25829;50.228;18.936;2023-07-16T12:59:21;5.78;;;5.25;;
40116;SDS011;25829;50.228;18.936;2023-07-16T13:02:22;7.13;;;5.50;;
40116;SDS011;25829;50.228;18.936;2023-07-16T13:05:22;6.07;;;5.47;;
40116;SDS011;25829;50.228;18.936;2023-07-16T13:08:26;6.97;;;5.90;;
40116;SDS011;25829;50.228;18.936;2023-07-16T13:18:37;7.50;;;6.80;;
40116;SDS011;25829;50.228;18.936;2023-07-16T13:25:02;7.80;;;6.75;;
40116;SDS011;25829;50.228;18.936;2023-07-16T13:28:03;7.15;;;6.45;;
40116;SDS011;25829;50.228;18.936;2023-07-16T13:31:06;7.95;;;6.47;;
40116;SDS011;25829;50.228;18.936;2023-07-16T13:34:07;7.20;;;6.55;;
40116;SDS011;25829;50.228;18.936;2023-07-16T13:37:11;8.02;;;6.13;;
40116;SDS011;25829;50.228;18.936;2023-07-16T13:40:12;7.25;;;6.65;;
40116;SDS011;25829;50.228;18.936;2023-07-16T13:43:12;7.97;;;7.18;;
40116;SDS011;25829;50.228;18.936;2023-07-16T13:46:13;7.75;;;7.05;;
40116;SDS011;25829;50.228;18.936;2023-07-16T13:49:14;8.38;;;7.25;;
40116;SDS011;25829;50.228;18.936;2023-07-16T13:52:15;8.55;;;7.10;;
40116;SDS011;25829;50.228;18.936;2023-07-16T13:55:16;9.90;;;8.20;;
40116;SDS011;25829;50.228;18.936;2023-07-16T13:58:17;8.40;;;7.70;;
40116;SDS011;25829;50.228;18.936;2023-07-16T14:01:18;9.07;;;7.32;;
40116;SDS011;25829;50.228;18.936;2023-07-16T14:04:18;7.93;;;7.10;;
40116;SDS011;25829;50.228;18.936;2023-07-16T14:07:19;8.15;;;6.88;;
40116;SDS011;25829;50.228;18.936;2023-07-16T14:10:20;9.75;;;7.47;;
40116;SDS011;25829;50.228;18.936;2023-07-16T14:16:43;8.88;;;7.80;;
40116;SDS011;25829;50.228;18.936;2023-07-16T14:24:48;8.43;;;7.60;;
40116;SDS011;25829;50.228;18.936;2023-07-16T14:28:23;8.63;;;7.82;;
40116;SDS011;25829;50.228;18.936;2023-07-16T14:31:23;7.63;;;6.85;;
40116;SDS011;25829;50.228;18.936;2023-07-16T14:34:25;9.20;;;6.57;;
40116;SDS011;25829;50.228;18.936;2023-07-16T14:37:29;7.80;;;6.97;;
40116;SDS011;25829;50.228;18.936;2023-07-16T14:40:30;7.63;;;6.88;;
40116;SDS011;25829;50.228;18.936;2023-07-16T14:43:30;8.85;;;6.78;;
40116;SDS011;25829;50.228;18.936;2023-07-16T14:46:31;8.05;;;7.00;;
40116;SDS011;25829;50.228;18.936;2023-07-16T14:49:32;8.30;;;7.50;;
40116;SDS011;25829;50.228;18.936;2023-07-16T14:52:33;7.32;;;6.70;;
40116;SDS011;25829;50.228;18.936;2023-07-16T14:55:35;8.32;;;7.15;;
40116;SDS011;25829;50.228;18.936;2023-07-16T14:58:35;9.80;;;7.57;;
40116;SDS011;25829;50.228;18.936;2023-07-16T15:01:52;9.68;;;8.13;;
40116;SDS011;25829;50.228;18.936;2023-07-16T15:04:53;8.27;;;7.18;;
40116;SDS011;25829;50.228;18.936;2023-07-16T15:07:56;8.38;;;7.32;;
40116;SDS011;25829;50.228;18.936;2023-07-16T15:10:58;9.50;;;7.63;;
40116;SDS011;25829;50.228;18.936;2023-07-16T15:13:59;8.05;;;7.25;;
40116;SDS011;25829;50.228;18.936;2023-07-16T15:17:00;8.57;;;7.68;;
40116;SDS011;25829;50.228;18.936;2023-07-16T15:20:02;8.82;;;7.78;;
40116;SDS011;25829;50.228;18.936;2023-07-16T15:23:04;9.00;;;8.20;;
40116;SDS011;25829;50.228;18.936;2023-07-16T15:26:05;10.57;;;7.72;;
40116;SDS011;25829;50.228;18.936;2023-07-16T15:29:08;7.72;;;7.15;;
40116;SDS011;25829;50.228;18.936;2023-07-16T15:32:08;8.40;;;7.60;;
40116;SDS011;25829;50.228;18.936;2023-07-16T15:35:09;11.57;;;7.50;;
40116;SDS011;25829;50.228;18.936;2023-07-16T15:38:17;10.65;;;7.45;;
40116;SDS011;25829;50.228;18.936;2023-07-16T15:41:19;8.23;;;7.43;;
40116;SDS011;25829;50.228;18.936;2023-07-16T15:44:23;7.72;;;6.93;;
40116;SDS011;25829;50.228;18.936;2023-07-16T15:47:24;7.88;;;7.07;;
40116;SDS011;25829;50.228;18.936;2023-07-16T15:50:26;7.95;;;7.15;;
40116;SDS011;25829;50.228;18.936;2023-07-16T15:53:27;7.72;;;7.07;;
40116;SDS011;25829;50.228;18.936;2023-07-16T15:56:28;8.15;;;7.25;;
40116;SDS011;25829;50.228;18.936;2023-07-16T15:59:29;7.97;;;7.20;;
40116;SDS011;25829;50.228;18.936;2023-07-16T16:02:30;11.02;;;8.20;;
40116;SDS011;25829;50.228;18.936;2023-07-16T16:05:31;7.53;;;6.80;;
40116;SDS011;25829;50.228;18.936;2023-07-16T16:08:32;7.43;;;6.82;;
40116;SDS011;25829;50.228;18.936;2023-07-16T16:11:34;9.70;;;6.80;;
40116;SDS011;25829;50.228;18.936;2023-07-16T16:14:35;7.28;;;6.68;;
40116;SDS011;25829;50.228;18.936;2023-07-16T16:17:36;9.82;;;6.70;;
40116;SDS011;25829;50.228;18.936;2023-07-16T16:20:40;6.53;;;6.03;;
40116;SDS011;25829;50.228;18.936;2023-07-16T16:23:42;6.85;;;6.03;;
40116;SDS011;25829;50.228;18.936;2023-07-16T16:26:43;7.45;;;6.30;;
40116;SDS011;25829;50.228;18.936;2023-07-16T16:29:44;6.85;;;6.25;;
40116;SDS011;25829;50.228;18.936;2023-07-16T16:32:47;6.88;;;5.80;;
40116;SDS011;25829;50.228;18.936;2023-07-16T16:35:52;7.82;;;6.53;;
40116;SDS011;25829;50.228;18.936;2023-07-16T16:38:53;6.78;;;6.18;;
40116;SDS011;25829;50.228;18.936;2023-07-16T16:41:54;9.07;;;6.53;;
40116;SDS011;25829;50.228;18.936;2023-07-16T16:44:55;6.65;;;6.03;;
40116;SDS011;25829;50.228;18.936;2023-07-16T16:47:55;7.43;;;6.43;;
40116;SDS011;25829;50.228;18.936;2023-07-16T16:50:56;6.72;;;6.03;;
40116;SDS011;25829;50.228;18.936;2023-07-16T16:54:00;10.73;;;6.47;;
40116;SDS011;25829;50.228;18.936;2023-07-16T16:57:01;7.70;;;6.45;;
40116;SDS011;25829;50.228;18.936;2023-07-16T17:00:02;7.25;;;6.22;;
40116;SDS011;25829;50.228;18.936;2023-07-16T17:03:04;6.78;;;5.82;;
40116;SDS011;25829;50.228;18.936;2023-07-16T17:06:05;7.95;;;6.38;;
40116;SDS011;25829;50.228;18.936;2023-07-16T17:09:06;7.25;;;6.55;;
40116;SDS011;25829;50.228;18.936;2023-07-16T17:12:07;7.13;;;6.45;;
40116;SDS011;25829;50.228;18.936;2023-07-16T17:15:09;6.30;;;5.80;;
40116;SDS011;25829;50.228;18.936;2023-07-16T17:18:10;6.75;;;6.25;;
40116;SDS011;25829;50.228;18.936;2023-07-16T17:21:11;9.05;;;5.97;;
40116;SDS011;25829;50.228;18.936;2023-07-16T17:24:12;8.07;;;7.28;;
40116;SDS011;25829;50.228;18.936;2023-07-16T17:27:22;7.13;;;6.28;;
40116;SDS011;25829;50.228;18.936;2023-07-16T17:30:23;9.20;;;6.72;;
40116;SDS011;25829;50.228;18.936;2023-07-16T17:33:28;9.73;;;8.82;;
40116;SDS011;25829;50.228;18.936;2023-07-16T17:36:29;7.75;;;7.07;;
40116;SDS011;25829;50.228;18.936;2023-07-16T17:39:36;7.95;;;7.05;;
40116;SDS011;25829;50.228;18.936;2023-07-16T17:42:40;6.38;;;5.78;;
40116;SDS011;25829;50.228;18.936;2023-07-16T17:45:41;10.88;;;5.88;;
40116;SDS011;25829;50.228;18.936;2023-07-16T17:48:42;5.15;;;4.70;;
40116;SDS011;25829;50.228;18.936;2023-07-16T17:51:48;5.45;;;4.30;;
40116;SDS011;25829;50.228;18.936;2023-07-16T17:54:49;5.88;;;4.15;;
40116;SDS011;25829;50.228;18.936;2023-07-16T17:57:50;5.47;;;3.70;;
40116;SDS011;25829;50.228;18.936;2023-07-16T18:00:56;5.95;;;3.88;;
40116;SDS011;25829;50.228;18.936;2023-07-16T18:03:57;3.50;;;3.20;;
40116;SDS011;25829;50.228;18.936;2023-07-16T18:06:58;5.30;;;3.47;;
40116;SDS011;25829;50.228;18.936;2023-07-16T18:09:59;5.70;;;3.30;;
40116;SDS011;25829;50.228;18.936;2023-07-16T18:13:00;3.45;;;2.95;;
40116;SDS011;25829;50.228;18.936;2023-07-16T18:16:00;5.18;;;3.10;;
40116;SDS011;25829;50.228;18.936;2023-07-16T18:19:01;3.38;;;3.08;;
40116;SDS011;25829;50.228;18.936;2023-07-16T18:22:02;4.30;;;3.42;;
40116;SDS011;25829;50.228;18.936;2023-07-16T18:25:04;3.83;;;3.30;;
40116;SDS011;25829;50.228;18.936;2023-07-16T18:28:05;6.03;;;3.20;;
40116;SDS011;25829;50.228;18.936;2023-07-16T18:31:06;3.88;;;3.20;;
40116;SDS011;25829;50.228;18.936;2023-07-16T18:34:06;4.32;;;3.30;;
40116;SDS011;25829;50.228;18.936;2023-07-16T18:37:07;5.10;;;3.47;;
40116;SDS011;25829;50.228;18.936;2023-07-16T18:40:08;5.78;;;3.85;;
40116;SDS011;25829;50.228;18.936;2023-07-16T18:43:10;5.03;;;3.10;;
40116;SDS011;25829;50.228;18.936;2023-07-16T18:46:11;6.10;;;3.13;;
40116;SDS011;25829;50.228;18.936;2023-07-16T18:49:12;4.95;;;3.17;;
40116;SDS011;25829;50.228;18.936;2023-07-16T18:52:12;3.50;;;3.20;;
40116;SDS011;25829;50.228;18.936;2023-07-16T18:55:13;3.58;;;3.28;;
40116;SDS011;25829;50.228;18.936;2023-07-16T18:58:14;7.32;;;3.42;;
40116;SDS011;25829;50.228;18.936;2023-07-16T19:01:15;4.90;;;3.80;;
40116;SDS011;25829;50.228;18.936;2023-07-16T19:04:15;4.35;;;3.45;;
40116;SDS011;25829;50.228;18.936;2023-07-16T19:07:16;7.28;;;4.00;;
40116;SDS011;25829;50.228;18.936;2023-07-16T19:10:17;4.90;;;4.00;;
40116;SDS011;25829;50.228;18.936;2023-07-16T19:13:17;4.95;;;3.40;;
40116;SDS011;25829;50.228;18.936;2023-07-16T19:16:19;4.53;;;4.15;;
40116;SDS011;25829;50.228;18.936;2023-07-16T19:19:20;6.63;;;4.07;;
40116;SDS011;25829;50.228;18.936;2023-07-16T19:22:21;5.90;;;4.65;;
40116;SDS011;25829;50.228;18.936;2023-07-16T19:25:23;6.15;;;4.95;;
40116;SDS011;25829;50.228;18.936;2023-07-16T19:28:24;5.55;;;4.38;;
40116;SDS011;25829;50.228;18.936;2023-07-16T19:31:24;8.15;;;4.43;;
40116;SDS011;25829;50.228;18.936;2023-07-16T19:34:25;7.88;;;4.38;;
40116;SDS011;25829;50.228;18.936;2023-07-16T19:37:26;5.60;;;4.50;;
40116;SDS011;25829;50.228;18.936;2023-07-16T19:40:31;4.07;;;3.67;;
40116;SDS011;25829;50.228;18.936;2023-07-16T19:43:32;5.55;;;4.03;;
40116;SDS011;25829;50.228;18.936;2023-07-16T19:46:39;5.70;;;4.20;;
40116;SDS011;25829;50.228;18.936;2023-07-16T19:56:50;9.57;;;4.63;;
40116;SDS011;25829;50.228;18.936;2023-07-16T19:59:51;4.90;;;4.35;;
40116;SDS011;25829;50.228;18.936;2023-07-16T20:02:52;5.50;;;4.60;;
40116;SDS011;25829;50.228;18.936;2023-07-16T20:05:55;5.75;;;4.45;;
40116;SDS011;25829;50.228;18.936;2023-07-16T20:08:56;5.20;;;4.60;;